Terminal Aerodrome Forecast
Issued by NWS Wilmington, OH

Current Version | Previous Version | Text Only | Print | Product List | Glossary Off
Versions: 1 2 3 4 5 6 7 8 9 10 11 12 13 14 15 16 17 18 19 20 21 22 23 24

488
FTUS41 KILN 031722
TAFDAY
TAF
KDAY 031722Z 0318/0418 32006KT P6SM VCSH OVC040
      TEMPO 0318/0320 5SM -SHRA OVC025
     FM040200 28005KT P6SM SCT040 BKN100
     FM041400 22012KT P6SM VCSH OVC040
     FM041700 24012G20KT 5SM -SHRA OVC025=

USA.gov is the U.S. government's official web portal to all federal, state and local government web resources and services.